createdAt,value
2018-12-16T09:17:44.073Z,18.30
2018-12-16T09:20:11.668Z,18.97
2018-12-16T09:22:39.262Z,19.00
2018-12-16T09:25:06.837Z,20.73
2018-12-16T09:27:34.445Z,20.90
2018-12-16T09:30:02.001Z,19.63
2018-12-16T09:32:29.596Z,20.27
2018-12-16T09:34:57.180Z,20.87
2018-12-16T09:37:24.780Z,22.03
2018-12-16T09:39:52.435Z,22.17
2018-12-16T09:42:20.091Z,21.57
2018-12-16T09:44:47.739Z,21.40
2018-12-16T09:47:15.374Z,21.27
2018-12-16T09:49:42.960Z,21.13
2018-12-16T09:52:10.560Z,20.33
2018-12-16T09:54:44.018Z,21.60
2018-12-16T09:57:07.772Z,20.50
2018-12-16T09:59:35.387Z,19.83
2018-12-16T10:02:02.977Z,20.87
2018-12-16T10:04:30.543Z,21.93
2018-12-16T10:06:58.163Z,20.50
2018-12-16T10:09:25.749Z,19.43
2018-12-16T10:11:53.462Z,20.77
2018-12-16T10:14:21.061Z,20.53
2018-12-16T10:16:48.677Z,19.70
2018-12-16T10:19:16.230Z,21.17
2018-12-16T10:21:43.832Z,21.83
2018-12-16T10:24:11.406Z,20.67
2018-12-16T10:26:39.094Z,21.33
2018-12-16T10:29:06.651Z,20.80
2018-12-16T10:31:34.252Z,20.10
2018-12-16T10:34:01.813Z,22.27
2018-12-16T10:36:29.415Z,20.37
2018-12-16T10:38:56.967Z,20.93
2018-12-16T10:41:24.512Z,21.60
2018-12-16T10:43:52.112Z,21.67
2018-12-16T10:46:19.713Z,21.07
2018-12-16T10:48:47.300Z,20.20
2018-12-16T10:51:14.902Z,21.80
2018-12-16T10:53:42.458Z,21.57
2018-12-16T10:56:10.117Z,21.67
2018-12-16T10:58:37.735Z,21.50
2018-12-16T11:01:10.895Z,21.27
2018-12-16T11:03:38.503Z,22.27
2018-12-16T11:06:06.076Z,21.23
2018-12-16T11:08:33.759Z,22.07
2018-12-16T11:11:01.329Z,21.33
2018-12-16T11:13:28.949Z,20.43
2018-12-16T11:15:56.551Z,20.53
2018-12-16T11:18:24.104Z,21.90
2018-12-16T11:20:51.696Z,21.27
2018-12-16T11:23:19.283Z,20.90
2018-12-16T11:25:46.836Z,20.77
2018-12-16T11:28:14.431Z,21.27
2018-12-16T11:30:42.140Z,21.50
2018-12-16T11:33:09.739Z,21.00
2018-12-16T11:35:37.331Z,22.20
2018-12-16T11:38:04.934Z,19.97
2018-12-16T11:40:32.492Z,20.77
2018-12-16T11:43:00.038Z,20.37
2018-12-16T11:45:27.633Z,20.30
2018-12-16T11:47:55.197Z,21.07
2018-12-16T11:50:22.788Z,20.33
2018-12-16T11:52:50.380Z,19.57
2018-12-16T11:55:17.969Z,20.20
2018-12-16T11:57:45.547Z,20.63
2018-12-16T12:00:13.261Z,20.87
2018-12-16T12:02:40.820Z,21.13
2018-12-16T12:05:08.514Z,21.37
2018-12-16T12:07:36.107Z,21.50
2018-12-16T12:10:04.676Z,21.10
2018-12-16T12:12:32.279Z,20.53
2018-12-16T12:14:59.871Z,21.03
2018-12-16T12:17:27.465Z,23.03
2018-12-16T12:19:55.054Z,21.10
2018-12-16T12:22:22.647Z,21.67
2018-12-16T12:24:50.205Z,22.10
2018-12-16T12:27:17.820Z,21.20
2018-12-16T12:29:45.376Z,21.67
2018-12-16T12:32:12.986Z,22.33
2018-12-16T12:34:40.537Z,21.83
2018-12-16T12:37:08.091Z,21.13
2018-12-16T12:39:35.684Z,21.90
2018-12-16T12:42:03.331Z,21.27
2018-12-16T12:44:31.021Z,22.13
2018-12-16T12:46:58.575Z,21.53
2018-12-16T12:49:26.154Z,22.07
2018-12-16T12:51:53.789Z,22.37
2018-12-16T12:54:21.350Z,22.63
2018-12-16T12:56:48.935Z,22.27
2018-12-16T12:59:16.490Z,22.20
2018-12-16T13:01:44.079Z,22.07
2018-12-16T13:04:11.641Z,22.50
2018-12-16T13:06:39.237Z,20.73
2018-12-16T13:09:07.056Z,21.27
2018-12-16T13:11:34.610Z,22.33
2018-12-16T13:14:02.224Z,22.80
2018-12-16T13:16:30.208Z,21.83
2018-12-16T13:18:57.787Z,22.47
2018-12-16T13:21:25.376Z,22.93
2018-12-16T13:23:52.981Z,23.27
2018-12-16T13:26:20.644Z,21.97
2018-12-16T13:28:48.359Z,23.10
2018-12-16T13:31:16.095Z,23.43
2018-12-16T13:33:43.648Z,23.47
2018-12-16T13:36:11.219Z,23.23
2018-12-16T13:38:38.882Z,23.13
2018-12-16T13:41:06.568Z,24.60
2018-12-16T13:43:34.322Z,21.87
2018-12-16T13:46:02.035Z,24.50
2018-12-16T13:48:29.642Z,23.67
2018-12-16T13:50:57.323Z,24.93
2018-12-16T13:53:24.875Z,23.83
2018-12-16T13:55:52.525Z,23.53
2018-12-16T13:58:20.111Z,23.30
2018-12-16T14:00:47.712Z,23.73
2018-12-16T14:03:15.356Z,22.73
2018-12-16T14:05:46.681Z,24.10
2018-12-16T14:08:12.691Z,24.80
2018-12-16T14:10:40.370Z,23.63
2018-12-16T14:13:08.012Z,24.63
2018-12-16T14:15:35.622Z,25.63
2018-12-16T14:18:03.542Z,24.27
2018-12-16T14:20:31.147Z,24.13
2018-12-16T14:22:58.784Z,24.13
2018-12-16T14:25:26.376Z,23.80
2018-12-16T14:27:54.007Z,23.23
2018-12-16T14:30:21.563Z,23.43
2018-12-16T14:32:49.161Z,23.53
2018-12-16T14:35:17.073Z,23.77
2018-12-16T14:37:44.799Z,23.33
2018-12-16T14:40:12.601Z,24.63
2018-12-16T14:42:40.153Z,24.33
2018-12-16T14:45:08.221Z,24.87
2018-12-16T14:47:35.826Z,24.97
2018-12-16T14:50:04.810Z,25.33
2018-12-16T14:52:32.390Z,27.13
2018-12-16T14:54:59.988Z,24.50
2018-12-16T14:57:27.540Z,25.40
2018-12-16T14:59:55.142Z,23.50
2018-12-16T15:02:22.697Z,24.77
2018-12-16T15:04:50.294Z,25.10
2018-12-16T15:07:17.839Z,26.57
2018-12-16T15:09:45.435Z,24.10
2018-12-16T15:12:13.002Z,23.93
2018-12-16T15:14:40.759Z,25.03
2018-12-16T15:17:08.728Z,24.87
2018-12-16T15:19:36.388Z,26.50
2018-12-16T15:22:04.064Z,26.97
2018-12-16T15:24:31.663Z,27.20
2018-12-16T15:26:59.341Z,28.23
2018-12-16T15:29:26.898Z,26.43
2018-12-16T15:31:54.497Z,25.97
2018-12-16T15:34:22.048Z,26.90
2018-12-16T15:36:49.624Z,26.33
2018-12-16T15:39:17.220Z,26.10
2018-12-16T15:41:44.777Z,28.43
2018-12-16T15:44:12.381Z,27.77
2018-12-16T15:46:39.932Z,27.23
2018-12-16T15:49:07.543Z,28.77
2018-12-16T15:51:35.099Z,27.10
2018-12-16T15:54:02.685Z,27.33
2018-12-16T15:56:33.813Z,26.00
2018-12-16T15:59:01.372Z,27.30
2018-12-16T16:01:28.988Z,27.23
2018-12-16T16:03:56.539Z,25.10
2018-12-16T16:06:24.129Z,27.20
2018-12-16T16:08:51.686Z,28.00
2018-12-16T16:11:19.283Z,27.33
2018-12-16T16:13:46.837Z,26.20
2018-12-16T16:16:14.448Z,27.37
2018-12-16T16:18:42.023Z,28.37
2018-12-16T16:21:09.615Z,29.60
2018-12-16T16:23:37.219Z,28.77
2018-12-16T16:26:04.777Z,29.70
2018-12-16T16:28:32.365Z,28.50
2018-12-16T16:30:59.971Z,28.03
2018-12-16T16:33:27.606Z,26.93
2018-12-16T16:35:55.297Z,28.13
2018-12-16T16:38:22.889Z,28.60
2018-12-16T16:40:51.186Z,28.63
2018-12-16T16:43:18.737Z,28.10
2018-12-16T16:45:46.352Z,28.33
2018-12-16T16:48:14.043Z,28.93
2018-12-16T16:50:41.616Z,28.70
2018-12-16T16:53:09.260Z,27.03
2018-12-16T16:55:36.858Z,27.23
2018-12-16T16:58:04.477Z,27.50
2018-12-16T17:00:32.036Z,27.63
2018-12-16T17:02:59.628Z,27.23
2018-12-16T17:05:27.184Z,27.80
2018-12-16T17:07:54.796Z,26.20
2018-12-16T17:10:22.390Z,27.23
2018-12-16T17:12:49.943Z,27.60
2018-12-16T17:15:17.540Z,28.80
2018-12-16T17:17:45.095Z,26.50
2018-12-16T17:20:12.684Z,26.57
2018-12-16T17:22:40.238Z,26.00
2018-12-16T17:25:07.932Z,27.43
2018-12-16T17:27:35.520Z,27.53
2018-12-16T17:30:04.139Z,26.00
2018-12-16T17:32:35.295Z,26.67
2018-12-16T17:35:02.908Z,27.93
2018-12-16T17:37:30.484Z,29.70
2018-12-16T17:39:58.057Z,29.23
2018-12-16T17:42:25.670Z,28.20
2018-12-16T17:44:53.280Z,27.17
2018-12-16T17:47:20.882Z,26.43
2018-12-16T17:49:48.443Z,25.50
2018-12-16T17:52:16.038Z,25.93
2018-12-16T17:54:44.762Z,26.47
2018-12-16T17:57:12.648Z,26.47
2018-12-16T17:59:40.640Z,25.40
2018-12-16T18:02:08.412Z,24.87
2018-12-16T18:04:36.009Z,24.80
2018-12-16T18:07:03.564Z,23.53
2018-12-16T18:09:31.178Z,24.60
2018-12-16T18:11:58.745Z,24.83
2018-12-16T18:14:26.306Z,24.23
2018-12-16T18:16:54.501Z,26.77
2018-12-16T18:19:22.314Z,24.73
2018-12-16T18:21:49.872Z,25.73
2018-12-16T18:24:17.480Z,24.90
2018-12-16T18:26:45.076Z,25.47
2018-12-16T18:29:12.637Z,24.50
2018-12-16T18:31:40.804Z,24.90
2018-12-16T18:34:08.421Z,25.03
2018-12-16T18:36:36.014Z,24.40
2018-12-16T18:39:05.524Z,24.80
2018-12-16T18:41:33.088Z,23.67
2018-12-16T18:44:00.771Z,23.27
2018-12-16T18:46:28.328Z,23.87
2018-12-16T18:48:55.951Z,24.20
2018-12-16T18:51:23.519Z,25.73
2018-12-16T18:53:51.115Z,24.93
2018-12-16T18:56:18.753Z,25.67
2018-12-16T18:58:46.317Z,24.40
2018-12-16T19:01:13.895Z,25.73
2018-12-16T19:03:41.489Z,25.97
2018-12-16T19:06:09.043Z,26.73
2018-12-16T19:08:36.638Z,27.13
2018-12-16T19:11:04.214Z,25.03
2018-12-16T19:13:31.805Z,24.83
2018-12-16T19:15:59.399Z,26.57
2018-12-16T19:18:28.048Z,25.53
2018-12-16T19:20:55.673Z,24.53
2018-12-16T19:23:23.285Z,26.27
2018-12-16T19:25:50.980Z,24.17
2018-12-16T19:28:18.555Z,23.67
2018-12-16T19:30:46.158Z,24.77
2018-12-16T19:33:13.910Z,24.10
2018-12-16T19:35:41.515Z,25.30
2018-12-16T19:38:09.103Z,23.83
2018-12-16T19:40:36.707Z,25.10
2018-12-16T19:43:04.263Z,24.20
2018-12-16T19:45:31.878Z,24.37
2018-12-16T19:47:59.435Z,23.87
2018-12-16T19:50:27.019Z,24.87
2018-12-16T19:52:54.616Z,25.60
2018-12-16T19:55:22.569Z,25.57
2018-12-16T19:57:50.172Z,24.20
2018-12-16T20:00:17.745Z,24.73
2018-12-16T20:02:45.309Z,25.57
2018-12-16T20:05:18.572Z,26.30
2018-12-16T20:07:46.272Z,26.50
2018-12-16T20:10:13.854Z,25.50
2018-12-16T20:12:41.456Z,27.67
2018-12-16T20:15:09.084Z,26.73
2018-12-16T20:17:36.836Z,28.27
2018-12-16T20:20:06.014Z,27.83
2018-12-16T20:22:33.663Z,27.30
2018-12-16T20:25:01.258Z,26.60
2018-12-16T20:30:23.525Z,28.33
2018-12-16T20:32:51.265Z,28.57
2018-12-16T20:35:19.105Z,28.40
2018-12-16T20:37:47.377Z,29.37
2018-12-16T20:40:14.995Z,27.90
2018-12-16T20:42:42.558Z,28.80
2018-12-16T20:45:10.116Z,26.53
2018-12-16T20:47:37.732Z,27.60
2018-12-16T20:50:06.389Z,28.60
2018-12-16T20:52:33.981Z,27.83
2018-12-16T20:55:01.581Z,27.87
2018-12-16T20:57:29.137Z,27.33
2018-12-16T20:59:56.728Z,27.00
2018-12-16T21:02:24.304Z,26.97
2018-12-16T21:04:51.905Z,26.53
2018-12-16T21:07:19.457Z,27.33
2018-12-16T21:09:47.051Z,28.13
2018-12-16T21:12:20.397Z,29.20
2018-12-16T21:14:53.730Z,28.97
2018-12-16T21:17:27.059Z,28.47
2018-12-16T21:19:54.671Z,29.07
2018-12-16T21:22:22.248Z,29.13
2018-12-16T21:24:49.851Z,30.13
2018-12-16T21:27:17.740Z,30.03
2018-12-16T21:29:45.306Z,29.40
2018-12-16T21:32:13.010Z,28.93
2018-12-16T21:34:40.568Z,26.43
2018-12-16T21:37:08.128Z,26.33
2018-12-16T21:39:35.729Z,24.50
2018-12-16T21:42:03.344Z,24.07
2018-12-16T21:44:30.966Z,23.73
2018-12-16T21:46:58.569Z,24.33
2018-12-16T21:49:26.196Z,23.90
2018-12-16T21:51:53.787Z,22.90
2018-12-16T21:54:21.385Z,22.87
2018-12-16T21:56:48.966Z,22.70
2018-12-16T21:59:16.578Z,22.33
2018-12-16T22:01:44.163Z,22.30
2018-12-16T22:04:11.761Z,22.37
2018-12-16T22:06:39.389Z,21.20
2018-12-16T22:09:07.645Z,22.90
2018-12-16T22:11:35.357Z,22.33
2018-12-16T22:14:02.990Z,22.23
2018-12-16T22:16:30.664Z,22.23
2018-12-16T22:18:58.363Z,22.27
2018-12-16T22:21:26.273Z,21.40
2018-12-16T22:23:53.971Z,21.57
2018-12-16T22:26:21.643Z,21.23
2018-12-16T22:28:49.274Z,19.27
2018-12-16T22:31:16.830Z,19.70
2018-12-16T22:33:44.451Z,20.17
2018-12-16T22:36:12.071Z,20.43
2018-12-16T22:38:39.634Z,20.77
2018-12-16T22:41:07.265Z,20.37
2018-12-16T22:43:34.824Z,19.73
2018-12-16T22:46:02.456Z,20.17
2018-12-16T22:48:30.011Z,20.83
2018-12-16T22:50:57.581Z,20.53
2018-12-16T22:53:25.192Z,19.83
2018-12-16T22:55:52.816Z,19.80
2018-12-16T22:58:20.389Z,19.23
2018-12-16T23:03:46.520Z,19.63
2018-12-16T23:06:14.174Z,19.17
2018-12-16T23:08:41.774Z,18.73
2018-12-16T23:11:09.372Z,20.53
2018-12-16T23:13:38.222Z,20.03
2018-12-16T23:16:05.936Z,20.67
2018-12-16T23:18:33.591Z,20.23
2018-12-16T23:21:01.362Z,20.63
2018-12-16T23:23:29.078Z,21.23
2018-12-16T23:25:56.932Z,22.37
2018-12-16T23:28:24.710Z,20.60
2018-12-16T23:30:52.482Z,19.80
2018-12-16T23:33:20.057Z,21.30
2018-12-16T23:35:47.679Z,20.57
2018-12-16T23:38:15.351Z,20.87
2018-12-16T23:40:42.990Z,20.83
2018-12-16T23:43:10.596Z,19.97
2018-12-16T23:45:38.257Z,20.47
2018-12-16T23:48:06.121Z,19.73
2018-12-16T23:50:33.832Z,19.67
2018-12-16T23:53:01.463Z,20.13
2018-12-16T23:55:29.070Z,20.57
2018-12-16T23:58:01.047Z,21.17
